sensor_id;sensor_type;location;lat;lon;timestamp;temperature;humidity
49032;DHT22;63443;48.366;10.876;2022-10-16T00:01:35;15.60;99.90
49032;DHT22;63443;48.366;10.876;2022-10-16T00:04:02;15.60;99.90
49032;DHT22;63443;48.366;10.876;2022-10-16T00:06:28;15.60;99.90
49032;DHT22;63443;48.366;10.876;2022-10-16T00:08:55;15.60;99.90
49032;DHT22;63443;48.366;10.876;2022-10-16T00:11:23;15.60;99.90
49032;DHT22;63443;48.366;10.876;2022-10-16T00:13:51;15.50;99.90
49032;DHT22;63443;48.366;10.876;2022-10-16T00:16:18;15.60;99.90
49032;DHT22;63443;48.366;10.876;2022-10-16T00:18:44;15.50;99.90
49032;DHT22;63443;48.366;10.876;2022-10-16T00:21:15;15.50;99.90
49032;DHT22;63443;48.366;10.876;2022-10-16T00:23:42;15.40;99.90
49032;DHT22;63443;48.366;10.876;2022-10-16T00:26:10;15.40;99.90
49032;DHT22;63443;48.366;10.876;2022-10-16T00:28:36;15.50;99.90
49032;DHT22;63443;48.366;10.876;2022-10-16T00:31:07;15.50;99.90
49032;DHT22;63443;48.366;10.876;2022-10-16T00:33:34;15.40;99.90
49032;DHT22;63443;48.366;10.876;2022-10-16T00:36:00;15.40;99.90
49032;DHT22;63443;48.366;10.876;2022-10-16T00:38:26;15.40;99.90
49032;DHT22;63443;48.366;10.876;2022-10-16T00:40:52;15.40;99.90
49032;DHT22;63443;48.366;10.876;2022-10-16T00:46:25;15.40;99.90
49032;DHT22;63443;48.366;10.876;2022-10-16T00:49:00;15.50;99.90
49032;DHT22;63443;48.366;10.876;2022-10-16T00:51:32;15.40;99.90
49032;DHT22;63443;48.366;10.876;2022-10-16T00:53:59;15.40;99.90
49032;DHT22;63443;48.366;10.876;2022-10-16T00:56:25;15.40;99.90
49032;DHT22;63443;48.366;10.876;2022-10-16T00:58:50;15.40;99.90
49032;DHT22;63443;48.366;10.876;2022-10-16T01:01:16;15.30;99.90
49032;DHT22;63443;48.366;10.876;2022-10-16T01:03:42;15.30;99.90
49032;DHT22;63443;48.366;10.876;2022-10-16T01:06:28;15.40;99.90
49032;DHT22;63443;48.366;10.876;2022-10-16T01:09:20;15.40;99.90
49032;DHT22;63443;48.366;10.876;2022-10-16T01:12:09;15.40;99.90
49032;DHT22;63443;48.366;10.876;2022-10-16T01:17:18;15.30;99.90
49032;DHT22;63443;48.366;10.876;2022-10-16T01:20:03;15.40;99.90
49032;DHT22;63443;48.366;10.876;2022-10-16T01:22:59;15.40;99.90
49032;DHT22;63443;48.366;10.876;2022-10-16T01:25:53;15.40;99.90
49032;DHT22;63443;48.366;10.876;2022-10-16T01:28:25;15.50;99.90
49032;DHT22;63443;48.366;10.876;2022-10-16T01:30:58;15.40;99.90
49032;DHT22;63443;48.366;10.876;2022-10-16T01:33:34;15.30;99.90
49032;DHT22;63443;48.366;10.876;2022-10-16T01:36:12;15.40;99.90
49032;DHT22;63443;48.366;10.876;2022-10-16T01:38:39;15.40;99.90
49032;DHT22;63443;48.366;10.876;2022-10-16T01:41:11;15.30;99.90
49032;DHT22;63443;48.366;10.876;2022-10-16T01:43:45;15.30;99.90
49032;DHT22;63443;48.366;10.876;2022-10-16T01:46:13;15.30;99.90
49032;DHT22;63443;48.366;10.876;2022-10-16T01:48:41;15.20;99.90
49032;DHT22;63443;48.366;10.876;2022-10-16T01:51:09;15.10;99.90
49032;DHT22;63443;48.366;10.876;2022-10-16T01:53:36;15.00;99.90
49032;DHT22;63443;48.366;10.876;2022-10-16T01:56:04;15.00;99.90
49032;DHT22;63443;48.366;10.876;2022-10-16T01:58:36;15.00;99.90
49032;DHT22;63443;48.366;10.876;2022-10-16T02:01:04;15.10;99.90
49032;DHT22;63443;48.366;10.876;2022-10-16T02:03:32;15.20;99.90
49032;DHT22;63443;48.366;10.876;2022-10-16T02:05:59;15.20;99.90
49032;DHT22;63443;48.366;10.876;2022-10-16T02:08:28;15.20;99.90
49032;DHT22;63443;48.366;10.876;2022-10-16T02:10:59;15.20;99.90
49032;DHT22;63443;48.366;10.876;2022-10-16T02:13:33;15.10;99.90
49032;DHT22;63443;48.366;10.876;2022-10-16T02:15:59;15.10;99.90
49032;DHT22;63443;48.366;10.876;2022-10-16T02:18:26;15.00;99.90
49032;DHT22;63443;48.366;10.876;2022-10-16T02:26:16;15.10;99.90
49032;DHT22;63443;48.366;10.876;2022-10-16T02:28:48;15.00;99.90
49032;DHT22;63443;48.366;10.876;2022-10-16T02:31:20;15.00;99.90
49032;DHT22;63443;48.366;10.876;2022-10-16T02:33:47;15.00;99.90
49032;DHT22;63443;48.366;10.876;2022-10-16T02:36:13;15.10;99.90
49032;DHT22;63443;48.366;10.876;2022-10-16T02:38:40;15.10;99.90
49032;DHT22;63443;48.366;10.876;2022-10-16T02:41:05;15.10;99.90
49032;DHT22;63443;48.366;10.876;2022-10-16T02:43:31;15.00;99.90
49032;DHT22;63443;48.366;10.876;2022-10-16T02:45:59;15.10;99.90
49032;DHT22;63443;48.366;10.876;2022-10-16T02:48:25;15.10;99.90
49032;DHT22;63443;48.366;10.876;2022-10-16T02:50:50;15.10;99.90
49032;DHT22;63443;48.366;10.876;2022-10-16T02:53:16;15.00;99.90
49032;DHT22;63443;48.366;10.876;2022-10-16T02:55:42;15.00;99.90
49032;DHT22;63443;48.366;10.876;2022-10-16T02:58:07;15.00;99.90
49032;DHT22;63443;48.366;10.876;2022-10-16T03:00:33;15.10;99.90
49032;DHT22;63443;48.366;10.876;2022-10-16T03:02:58;15.00;99.90
49032;DHT22;63443;48.366;10.876;2022-10-16T03:05:24;15.10;99.90
49032;DHT22;63443;48.366;10.876;2022-10-16T03:07:49;15.10;99.90
49032;DHT22;63443;48.366;10.876;2022-10-16T03:10:15;15.00;99.90
49032;DHT22;63443;48.366;10.876;2022-10-16T03:12:41;15.10;99.90
49032;DHT22;63443;48.366;10.876;2022-10-16T03:15:06;15.10;99.90
49032;DHT22;63443;48.366;10.876;2022-10-16T03:17:32;15.20;99.90
49032;DHT22;63443;48.366;10.876;2022-10-16T03:19:58;15.20;99.90
49032;DHT22;63443;48.366;10.876;2022-10-16T03:22:24;15.10;99.90
49032;DHT22;63443;48.366;10.876;2022-10-16T03:24:49;15.10;99.90
49032;DHT22;63443;48.366;10.876;2022-10-16T03:27:15;15.10;99.90
49032;DHT22;63443;48.366;10.876;2022-10-16T03:29:40;15.10;99.90
49032;DHT22;63443;48.366;10.876;2022-10-16T03:32:06;15.00;99.90
49032;DHT22;63443;48.366;10.876;2022-10-16T03:34:31;15.10;99.90
49032;DHT22;63443;48.366;10.876;2022-10-16T03:36:57;15.10;99.90
49032;DHT22;63443;48.366;10.876;2022-10-16T03:39:23;15.10;99.90
49032;DHT22;63443;48.366;10.876;2022-10-16T03:41:48;15.10;99.90
49032;DHT22;63443;48.366;10.876;2022-10-16T03:44:14;15.10;99.90
49032;DHT22;63443;48.366;10.876;2022-10-16T03:46:40;15.00;99.90
49032;DHT22;63443;48.366;10.876;2022-10-16T03:49:05;15.00;99.90
49032;DHT22;63443;48.366;10.876;2022-10-16T03:51:31;15.00;99.90
49032;DHT22;63443;48.366;10.876;2022-10-16T03:53:57;15.10;99.90
49032;DHT22;63443;48.366;10.876;2022-10-16T03:56:22;15.10;99.90
49032;DHT22;63443;48.366;10.876;2022-10-16T03:58:48;15.10;99.90
49032;DHT22;63443;48.366;10.876;2022-10-16T04:01:14;15.10;99.90
49032;DHT22;63443;48.366;10.876;2022-10-16T04:03:39;15.10;99.90
49032;DHT22;63443;48.366;10.876;2022-10-16T04:06:05;15.20;99.90
49032;DHT22;63443;48.366;10.876;2022-10-16T04:08:30;15.20;99.90
49032;DHT22;63443;48.366;10.876;2022-10-16T04:10:56;15.30;99.90
49032;DHT22;63443;48.366;10.876;2022-10-16T04:13:21;15.30;99.90
49032;DHT22;63443;48.366;10.876;2022-10-16T04:15:47;15.30;99.90
49032;DHT22;63443;48.366;10.876;2022-10-16T04:18:13;15.30;99.90
49032;DHT22;63443;48.366;10.876;2022-10-16T04:20:38;15.30;99.90
49032;DHT22;63443;48.366;10.876;2022-10-16T04:23:04;15.30;99.90
49032;DHT22;63443;48.366;10.876;2022-10-16T04:25:30;15.30;99.90
49032;DHT22;63443;48.366;10.876;2022-10-16T04:27:56;15.30;99.90
49032;DHT22;63443;48.366;10.876;2022-10-16T04:30:22;15.20;99.90
49032;DHT22;63443;48.366;10.876;2022-10-16T04:32:52;15.20;99.90
49032;DHT22;63443;48.366;10.876;2022-10-16T04:35:18;15.20;99.90
49032;DHT22;63443;48.366;10.876;2022-10-16T04:37:44;15.10;99.90
49032;DHT22;63443;48.366;10.876;2022-10-16T04:40:10;15.20;99.90
49032;DHT22;63443;48.366;10.876;2022-10-16T04:42:36;15.20;99.90
49032;DHT22;63443;48.366;10.876;2022-10-16T04:45:02;15.30;99.90
49032;DHT22;63443;48.366;10.876;2022-10-16T04:47:27;15.20;99.90
49032;DHT22;63443;48.366;10.876;2022-10-16T04:49:53;15.20;99.90
49032;DHT22;63443;48.366;10.876;2022-10-16T04:52:19;15.00;99.90
49032;DHT22;63443;48.366;10.876;2022-10-16T04:54:46;14.90;99.90
49032;DHT22;63443;48.366;10.876;2022-10-16T04:57:12;14.90;99.90
49032;DHT22;63443;48.366;10.876;2022-10-16T04:59:38;15.00;99.90
49032;DHT22;63443;48.366;10.876;2022-10-16T05:02:03;15.00;99.90
49032;DHT22;63443;48.366;10.876;2022-10-16T05:04:29;15.00;99.90
49032;DHT22;63443;48.366;10.876;2022-10-16T05:06:54;15.00;99.90
49032;DHT22;63443;48.366;10.876;2022-10-16T05:09:20;15.00;99.90
49032;DHT22;63443;48.366;10.876;2022-10-16T05:11:46;14.90;99.90
49032;DHT22;63443;48.366;10.876;2022-10-16T05:14:11;14.90;99.90
49032;DHT22;63443;48.366;10.876;2022-10-16T05:16:37;14.90;99.90
49032;DHT22;63443;48.366;10.876;2022-10-16T05:19:02;14.90;99.90
49032;DHT22;63443;48.366;10.876;2022-10-16T05:21:28;14.90;99.90
49032;DHT22;63443;48.366;10.876;2022-10-16T05:23:53;14.80;99.90
49032;DHT22;63443;48.366;10.876;2022-10-16T05:26:20;14.80;99.90
49032;DHT22;63443;48.366;10.876;2022-10-16T05:28:46;14.80;99.90
49032;DHT22;63443;48.366;10.876;2022-10-16T05:31:12;14.70;99.90
49032;DHT22;63443;48.366;10.876;2022-10-16T05:33:37;14.60;99.90
49032;DHT22;63443;48.366;10.876;2022-10-16T05:36:07;14.60;99.90
49032;DHT22;63443;48.366;10.876;2022-10-16T05:38:35;14.60;99.90
49032;DHT22;63443;48.366;10.876;2022-10-16T05:41:00;14.70;99.90
49032;DHT22;63443;48.366;10.876;2022-10-16T05:43:30;14.60;99.90
49032;DHT22;63443;48.366;10.876;2022-10-16T05:46:02;14.60;99.90
49032;DHT22;63443;48.366;10.876;2022-10-16T05:48:28;14.60;99.90
49032;DHT22;63443;48.366;10.876;2022-10-16T05:51:02;14.60;99.90
49032;DHT22;63443;48.366;10.876;2022-10-16T05:53:29;14.60;99.90
49032;DHT22;63443;48.366;10.876;2022-10-16T05:55:55;14.50;99.90
49032;DHT22;63443;48.366;10.876;2022-10-16T05:58:22;14.50;99.90
49032;DHT22;63443;48.366;10.876;2022-10-16T06:01:00;14.50;99.90
49032;DHT22;63443;48.366;10.876;2022-10-16T06:03:26;14.60;99.90
49032;DHT22;63443;48.366;10.876;2022-10-16T06:05:52;14.50;99.90
49032;DHT22;63443;48.366;10.876;2022-10-16T06:08:19;14.60;99.90
49032;DHT22;63443;48.366;10.876;2022-10-16T06:10:45;14.60;99.90
49032;DHT22;63443;48.366;10.876;2022-10-16T06:13:12;14.60;99.90
49032;DHT22;63443;48.366;10.876;2022-10-16T06:15:38;14.70;99.90
49032;DHT22;63443;48.366;10.876;2022-10-16T06:18:05;14.70;99.90
49032;DHT22;63443;48.366;10.876;2022-10-16T06:20:30;14.70;99.90
49032;DHT22;63443;48.366;10.876;2022-10-16T06:22:56;14.70;99.90
49032;DHT22;63443;48.366;10.876;2022-10-16T06:25:22;14.70;99.90
49032;DHT22;63443;48.366;10.876;2022-10-16T06:27:47;14.80;99.90
49032;DHT22;63443;48.366;10.876;2022-10-16T06:30:13;14.80;99.90
49032;DHT22;63443;48.366;10.876;2022-10-16T06:32:39;14.80;99.90
49032;DHT22;63443;48.366;10.876;2022-10-16T06:35:04;14.90;99.90
49032;DHT22;63443;48.366;10.876;2022-10-16T06:37:30;14.80;99.90
49032;DHT22;63443;48.366;10.876;2022-10-16T06:39:56;14.90;99.90
49032;DHT22;63443;48.366;10.876;2022-10-16T06:42:21;15.00;99.90
49032;DHT22;63443;48.366;10.876;2022-10-16T06:44:47;15.00;99.90
49032;DHT22;63443;48.366;10.876;2022-10-16T06:47:12;15.10;99.90
49032;DHT22;63443;48.366;10.876;2022-10-16T06:49:38;15.20;99.90
49032;DHT22;63443;48.366;10.876;2022-10-16T06:52:03;15.20;99.90
49032;DHT22;63443;48.366;10.876;2022-10-16T06:54:30;15.20;99.90
49032;DHT22;63443;48.366;10.876;2022-10-16T06:56:56;15.10;99.90
49032;DHT22;63443;48.366;10.876;2022-10-16T06:59:21;15.10;99.90
49032;DHT22;63443;48.366;10.876;2022-10-16T07:01:47;15.30;99.90
49032;DHT22;63443;48.366;10.876;2022-10-16T07:04:13;15.40;99.90
49032;DHT22;63443;48.366;10.876;2022-10-16T07:06:39;15.40;99.90
49032;DHT22;63443;48.366;10.876;2022-10-16T07:09:06;15.40;99.90
49032;DHT22;63443;48.366;10.876;2022-10-16T07:11:33;15.50;99.90
49032;DHT22;63443;48.366;10.876;2022-10-16T07:13:58;15.50;99.90
49032;DHT22;63443;48.366;10.876;2022-10-16T07:16:26;15.50;99.90
49032;DHT22;63443;48.366;10.876;2022-10-16T07:18:54;15.60;99.90
49032;DHT22;63443;48.366;10.876;2022-10-16T07:21:23;15.60;99.90
49032;DHT22;63443;48.366;10.876;2022-10-16T07:23:55;15.70;99.90
49032;DHT22;63443;48.366;10.876;2022-10-16T07:26:21;15.70;99.90
49032;DHT22;63443;48.366;10.876;2022-10-16T07:28:47;15.70;99.90
49032;DHT22;63443;48.366;10.876;2022-10-16T07:31:14;15.90;99.90
49032;DHT22;63443;48.366;10.876;2022-10-16T07:33:41;16.00;99.90
49032;DHT22;63443;48.366;10.876;2022-10-16T07:36:10;16.10;99.90
49032;DHT22;63443;48.366;10.876;2022-10-16T07:38:35;16.10;99.90
49032;DHT22;63443;48.366;10.876;2022-10-16T07:41:03;16.20;99.90
49032;DHT22;63443;48.366;10.876;2022-10-16T07:43:29;16.20;99.90
49032;DHT22;63443;48.366;10.876;2022-10-16T07:45:56;16.20;99.90
49032;DHT22;63443;48.366;10.876;2022-10-16T07:48:22;16.30;99.90
49032;DHT22;63443;48.366;10.876;2022-10-16T07:50:48;16.40;99.90
49032;DHT22;63443;48.366;10.876;2022-10-16T07:53:14;16.40;99.90
49032;DHT22;63443;48.366;10.876;2022-10-16T07:55:40;16.50;99.90
49032;DHT22;63443;48.366;10.876;2022-10-16T07:58:06;16.60;99.90
49032;DHT22;63443;48.366;10.876;2022-10-16T08:00:32;16.60;99.90
49032;DHT22;63443;48.366;10.876;2022-10-16T08:02:58;16.70;99.90
49032;DHT22;63443;48.366;10.876;2022-10-16T08:05:28;16.70;99.90
49032;DHT22;63443;48.366;10.876;2022-10-16T08:07:55;16.80;99.90
49032;DHT22;63443;48.366;10.876;2022-10-16T08:10:22;16.80;99.90
49032;DHT22;63443;48.366;10.876;2022-10-16T08:12:48;16.80;99.90
49032;DHT22;63443;48.366;10.876;2022-10-16T08:15:14;17.00;99.90
49032;DHT22;63443;48.366;10.876;2022-10-16T08:17:39;17.20;99.90
49032;DHT22;63443;48.366;10.876;2022-10-16T08:20:05;17.20;99.90
49032;DHT22;63443;48.366;10.876;2022-10-16T08:22:31;17.10;99.90
49032;DHT22;63443;48.366;10.876;2022-10-16T08:24:57;17.10;99.90
49032;DHT22;63443;48.366;10.876;2022-10-16T08:27:22;17.20;99.90
49032;DHT22;63443;48.366;10.876;2022-10-16T08:29:48;17.30;99.90
49032;DHT22;63443;48.366;10.876;2022-10-16T08:32:14;17.40;99.90
49032;DHT22;63443;48.366;10.876;2022-10-16T08:34:40;17.60;99.90
49032;DHT22;63443;48.366;10.876;2022-10-16T08:37:05;17.60;99.90
49032;DHT22;63443;48.366;10.876;2022-10-16T08:39:33;17.60;99.90
49032;DHT22;63443;48.366;10.876;2022-10-16T08:47:25;18.20;99.70
49032;DHT22;63443;48.366;10.876;2022-10-16T08:49:59;18.30;99.50
49032;DHT22;63443;48.366;10.876;2022-10-16T08:52:32;18.40;99.60
49032;DHT22;63443;48.366;10.876;2022-10-16T08:55:01;18.50;99.30
49032;DHT22;63443;48.366;10.876;2022-10-16T08:57:28;18.70;99.00
49032;DHT22;63443;48.366;10.876;2022-10-16T09:00:00;19.00;98.60
49032;DHT22;63443;48.366;10.876;2022-10-16T09:02:37;19.10;98.30
49032;DHT22;63443;48.366;10.876;2022-10-16T09:08:33;19.30;98.50
49032;DHT22;63443;48.366;10.876;2022-10-16T09:10:41;19.40;97.80
49032;DHT22;63443;48.366;10.876;2022-10-16T09:15:55;19.70;97.00
49032;DHT22;63443;48.366;10.876;2022-10-16T09:18:38;19.70;96.90
49032;DHT22;63443;48.366;10.876;2022-10-16T09:21:33;19.80;97.20
49032;DHT22;63443;48.366;10.876;2022-10-16T09:24:13;19.90;97.20
49032;DHT22;63443;48.366;10.876;2022-10-16T09:26:40;20.10;96.30
49032;DHT22;63443;48.366;10.876;2022-10-16T09:29:05;20.20;95.80
49032;DHT22;63443;48.366;10.876;2022-10-16T09:31:31;20.40;94.80
49032;DHT22;63443;48.366;10.876;2022-10-16T09:34:02;20.60;93.50
49032;DHT22;63443;48.366;10.876;2022-10-16T09:36:42;20.70;93.10
49032;DHT22;63443;48.366;10.876;2022-10-16T09:39:11;20.80;92.60
49032;DHT22;63443;48.366;10.876;2022-10-16T09:41:40;20.90;92.40
49032;DHT22;63443;48.366;10.876;2022-10-16T09:46:49;20.90;92.70
49032;DHT22;63443;48.366;10.876;2022-10-16T09:49:26;21.10;92.60
49032;DHT22;63443;48.366;10.876;2022-10-16T09:52:10;21.20;92.30
49032;DHT22;63443;48.366;10.876;2022-10-16T09:54:36;21.30;92.00
49032;DHT22;63443;48.366;10.876;2022-10-16T09:57:06;21.40;92.10
49032;DHT22;63443;48.366;10.876;2022-10-16T09:59:32;21.40;92.00
49032;DHT22;63443;48.366;10.876;2022-10-16T10:02:02;21.40;92.20
49032;DHT22;63443;48.366;10.876;2022-10-16T10:04:38;21.50;91.70
49032;DHT22;63443;48.366;10.876;2022-10-16T10:07:05;21.50;91.90
49032;DHT22;63443;48.366;10.876;2022-10-16T10:09:39;21.50;91.60
49032;DHT22;63443;48.366;10.876;2022-10-16T10:12:14;21.60;91.40
49032;DHT22;63443;48.366;10.876;2022-10-16T10:14:47;21.60;91.70
49032;DHT22;63443;48.366;10.876;2022-10-16T10:22:26;21.80;91.80
49032;DHT22;63443;48.366;10.876;2022-10-16T10:31:03;21.90;91.50
49032;DHT22;63443;48.366;10.876;2022-10-16T10:33:35;21.90;91.30
49032;DHT22;63443;48.366;10.876;2022-10-16T10:39:00;22.10;90.80
49032;DHT22;63443;48.366;10.876;2022-10-16T10:47:12;22.10;91.10
49032;DHT22;63443;48.366;10.876;2022-10-16T10:52:27;22.00;91.40
49032;DHT22;63443;48.366;10.876;2022-10-16T10:58:15;22.30;91.60
49032;DHT22;63443;48.366;10.876;2022-10-16T11:06:12;22.60;86.40
49032;DHT22;63443;48.366;10.876;2022-10-16T11:14:18;22.90;83.40
49032;DHT22;63443;48.366;10.876;2022-10-16T11:16:52;23.00;82.30
49032;DHT22;63443;48.366;10.876;2022-10-16T11:19:29;23.20;80.90
49032;DHT22;63443;48.366;10.876;2022-10-16T11:27:47;23.30;82.10
49032;DHT22;63443;48.366;10.876;2022-10-16T11:30:26;23.60;80.70
49032;DHT22;63443;48.366;10.876;2022-10-16T11:33:00;23.60;79.30
49032;DHT22;63443;48.366;10.876;2022-10-16T11:38:31;23.70;79.70
49032;DHT22;63443;48.366;10.876;2022-10-16T11:41:37;23.60;80.10
49032;DHT22;63443;48.366;10.876;2022-10-16T11:49:40;23.80;78.70
49032;DHT22;63443;48.366;10.876;2022-10-16T11:52:35;23.80;77.70
49032;DHT22;63443;48.366;10.876;2022-10-16T11:55:24;23.80;77.50
49032;DHT22;63443;48.366;10.876;2022-10-16T11:57:58;23.70;76.80
49032;DHT22;63443;48.366;10.876;2022-10-16T12:09:00;24.20;75.40
49032;DHT22;63443;48.366;10.876;2022-10-16T12:14:34;25.40;73.60
49032;DHT22;63443;48.366;10.876;2022-10-16T12:17:03;25.90;71.80
49032;DHT22;63443;48.366;10.876;2022-10-16T12:19:31;26.20;71.20
49032;DHT22;63443;48.366;10.876;2022-10-16T12:22:02;26.60;70.20
49032;DHT22;63443;48.366;10.876;2022-10-16T12:27:00;27.10;67.70
49032;DHT22;63443;48.366;10.876;2022-10-16T12:29:35;27.40;67.40
49032;DHT22;63443;48.366;10.876;2022-10-16T12:32:04;27.60;66.50
49032;DHT22;63443;48.366;10.876;2022-10-16T12:34:37;27.60;64.60
49032;DHT22;63443;48.366;10.876;2022-10-16T12:39:35;27.70;63.50
49032;DHT22;63443;48.366;10.876;2022-10-16T12:42:20;27.90;62.20
49032;DHT22;63443;48.366;10.876;2022-10-16T12:44:46;27.70;61.90
49032;DHT22;63443;48.366;10.876;2022-10-16T12:49:56;27.10;62.00
49032;DHT22;63443;48.366;10.876;2022-10-16T12:54:59;26.80;64.20
49032;DHT22;63443;48.366;10.876;2022-10-16T12:57:38;26.90;64.30
49032;DHT22;63443;48.366;10.876;2022-10-16T13:02:46;27.50;62.40
49032;DHT22;63443;48.366;10.876;2022-10-16T13:05:18;28.00;62.80
49032;DHT22;63443;48.366;10.876;2022-10-16T13:10:25;30.10;59.50
49032;DHT22;63443;48.366;10.876;2022-10-16T13:13:07;30.60;57.00
49032;DHT22;63443;48.366;10.876;2022-10-16T13:20:56;31.80;55.70
49032;DHT22;63443;48.366;10.876;2022-10-16T13:24:01;33.20;54.50
49032;DHT22;63443;48.366;10.876;2022-10-16T13:26:20;34.30;53.50
49032;DHT22;63443;48.366;10.876;2022-10-16T13:28:47;35.30;51.70
49032;DHT22;63443;48.366;10.876;2022-10-16T13:31:17;35.60;50.70
49032;DHT22;63443;48.366;10.876;2022-10-16T13:33:47;35.80;49.80
49032;DHT22;63443;48.366;10.876;2022-10-16T13:36:20;35.60;48.00
49032;DHT22;63443;48.366;10.876;2022-10-16T13:38:46;34.50;47.40
49032;DHT22;63443;48.366;10.876;2022-10-16T13:41:15;33.60;48.40
49032;DHT22;63443;48.366;10.876;2022-10-16T13:43:45;32.90;49.90
49032;DHT22;63443;48.366;10.876;2022-10-16T13:46:13;32.20;50.60
49032;DHT22;63443;48.366;10.876;2022-10-16T13:48:38;32.50;51.40
49032;DHT22;63443;48.366;10.876;2022-10-16T13:51:14;32.80;51.70
49032;DHT22;63443;48.366;10.876;2022-10-16T13:53:40;32.40;51.90
49032;DHT22;63443;48.366;10.876;2022-10-16T13:56:13;32.10;52.40
49032;DHT22;63443;48.366;10.876;2022-10-16T13:58:38;31.80;51.10
49032;DHT22;63443;48.366;10.876;2022-10-16T14:01:05;31.50;52.30
49032;DHT22;63443;48.366;10.876;2022-10-16T14:03:31;31.00;53.50
49032;DHT22;63443;48.366;10.876;2022-10-16T14:05:58;30.70;56.60
49032;DHT22;63443;48.366;10.876;2022-10-16T14:08:24;30.40;58.60
49032;DHT22;63443;48.366;10.876;2022-10-16T14:10:51;30.10;60.10
49032;DHT22;63443;48.366;10.876;2022-10-16T14:13:19;29.90;60.20
49032;DHT22;63443;48.366;10.876;2022-10-16T14:15:46;29.80;54.10
49032;DHT22;63443;48.366;10.876;2022-10-16T14:18:15;29.40;55.60
49032;DHT22;63443;48.366;10.876;2022-10-16T14:20:43;29.10;56.60
49032;DHT22;63443;48.366;10.876;2022-10-16T14:25:53;29.00;57.70
49032;DHT22;63443;48.366;10.876;2022-10-16T14:28:19;29.10;57.00
49032;DHT22;63443;48.366;10.876;2022-10-16T14:30:52;29.00;56.60
49032;DHT22;63443;48.366;10.876;2022-10-16T14:33:51;28.80;57.30
49032;DHT22;63443;48.366;10.876;2022-10-16T14:38:35;28.20;59.20
49032;DHT22;63443;48.366;10.876;2022-10-16T14:41:01;28.00;59.90
49032;DHT22;63443;48.366;10.876;2022-10-16T14:43:32;27.80;60.10
49032;DHT22;63443;48.366;10.876;2022-10-16T14:45:59;27.60;61.00
49032;DHT22;63443;48.366;10.876;2022-10-16T14:48:25;27.40;60.80
49032;DHT22;63443;48.366;10.876;2022-10-16T14:50:50;27.30;61.40
49032;DHT22;63443;48.366;10.876;2022-10-16T14:53:16;27.30;61.60
49032;DHT22;63443;48.366;10.876;2022-10-16T14:55:42;27.20;62.20
49032;DHT22;63443;48.366;10.876;2022-10-16T14:58:10;27.30;63.20
49032;DHT22;63443;48.366;10.876;2022-10-16T15:00:38;27.20;63.20
49032;DHT22;63443;48.366;10.876;2022-10-16T15:03:04;27.20;63.40
49032;DHT22;63443;48.366;10.876;2022-10-16T15:05:29;27.20;63.90
49032;DHT22;63443;48.366;10.876;2022-10-16T15:07:57;27.30;63.70
49032;DHT22;63443;48.366;10.876;2022-10-16T15:10:23;27.30;64.40
49032;DHT22;63443;48.366;10.876;2022-10-16T15:12:49;27.10;64.60
49032;DHT22;63443;48.366;10.876;2022-10-16T15:15:23;27.00;64.40
49032;DHT22;63443;48.366;10.876;2022-10-16T15:17:51;26.90;64.50
49032;DHT22;63443;48.366;10.876;2022-10-16T15:20:19;26.70;64.80
49032;DHT22;63443;48.366;10.876;2022-10-16T15:22:44;26.50;65.00
49032;DHT22;63443;48.366;10.876;2022-10-16T15:27:54;26.20;66.10
49032;DHT22;63443;48.366;10.876;2022-10-16T15:30:19;26.10;66.80
49032;DHT22;63443;48.366;10.876;2022-10-16T15:32:45;26.10;67.20
49032;DHT22;63443;48.366;10.876;2022-10-16T15:35:10;26.10;67.50
49032;DHT22;63443;48.366;10.876;2022-10-16T15:37:36;26.00;67.30
49032;DHT22;63443;48.366;10.876;2022-10-16T15:40:02;25.80;67.60
49032;DHT22;63443;48.366;10.876;2022-10-16T15:42:27;25.80;68.30
49032;DHT22;63443;48.366;10.876;2022-10-16T15:44:53;25.70;68.40
49032;DHT22;63443;48.366;10.876;2022-10-16T15:47:18;25.50;68.50
49032;DHT22;63443;48.366;10.876;2022-10-16T15:49:44;25.30;68.40
49032;DHT22;63443;48.366;10.876;2022-10-16T15:52:09;25.10;68.20
49032;DHT22;63443;48.366;10.876;2022-10-16T15:54:35;24.90;68.80
49032;DHT22;63443;48.366;10.876;2022-10-16T15:57:00;24.70;69.70
49032;DHT22;63443;48.366;10.876;2022-10-16T15:59:26;24.60;70.30
49032;DHT22;63443;48.366;10.876;2022-10-16T16:01:51;24.40;70.80
49032;DHT22;63443;48.366;10.876;2022-10-16T16:04:17;24.20;71.60
49032;DHT22;63443;48.366;10.876;2022-10-16T16:06:43;24.00;72.20
49032;DHT22;63443;48.366;10.876;2022-10-16T16:09:10;23.80;72.30
49032;DHT22;63443;48.366;10.876;2022-10-16T16:11:36;23.70;72.70
49032;DHT22;63443;48.366;10.876;2022-10-16T16:14:07;23.50;73.80
49032;DHT22;63443;48.366;10.876;2022-10-16T16:16:33;23.30;74.90
49032;DHT22;63443;48.366;10.876;2022-10-16T16:19:03;23.20;75.80
49032;DHT22;63443;48.366;10.876;2022-10-16T16:21:30;23.10;77.20
49032;DHT22;63443;48.366;10.876;2022-10-16T16:23:55;23.00;78.10
49032;DHT22;63443;48.366;10.876;2022-10-16T16:26:24;22.80;78.80
49032;DHT22;63443;48.366;10.876;2022-10-16T16:28:51;22.70;79.40
49032;DHT22;63443;48.366;10.876;2022-10-16T16:31:17;22.60;80.40
49032;DHT22;63443;48.366;10.876;2022-10-16T16:33:42;22.50;81.30
49032;DHT22;63443;48.366;10.876;2022-10-16T16:36:08;22.50;81.70
49032;DHT22;63443;48.366;10.876;2022-10-16T16:38:33;22.40;82.20
49032;DHT22;63443;48.366;10.876;2022-10-16T16:40:59;22.20;82.80
49032;DHT22;63443;48.366;10.876;2022-10-16T16:43:25;22.20;83.60
49032;DHT22;63443;48.366;10.876;2022-10-16T16:45:51;22.10;84.00
49032;DHT22;63443;48.366;10.876;2022-10-16T16:48:17;22.10;84.40
49032;DHT22;63443;48.366;10.876;2022-10-16T16:50:42;21.90;84.10
49032;DHT22;63443;48.366;10.876;2022-10-16T16:53:08;21.80;84.70
49032;DHT22;63443;48.366;10.876;2022-10-16T16:55:33;21.70;85.40
49032;DHT22;63443;48.366;10.876;2022-10-16T16:57:59;21.60;86.00
49032;DHT22;63443;48.366;10.876;2022-10-16T17:00:25;21.50;86.50
49032;DHT22;63443;48.366;10.876;2022-10-16T17:02:50;21.40;86.70
49032;DHT22;63443;48.366;10.876;2022-10-16T17:05:16;21.30;87.30
49032;DHT22;63443;48.366;10.876;2022-10-16T17:07:42;21.20;88.10
49032;DHT22;63443;48.366;10.876;2022-10-16T17:10:07;21.10;88.60
49032;DHT22;63443;48.366;10.876;2022-10-16T17:12:33;21.00;89.10
49032;DHT22;63443;48.366;10.876;2022-10-16T17:14:58;21.00;89.70
49032;DHT22;63443;48.366;10.876;2022-10-16T17:17:24;20.90;90.00
49032;DHT22;63443;48.366;10.876;2022-10-16T17:19:50;20.80;90.10